createdAt,value
2018-10-02T00:01:49.277Z,1016.63
2018-10-02T00:03:53.693Z,1016.70
2018-10-02T00:04:46.539Z,1016.64
2018-10-02T00:06:49.006Z,1016.65
2018-10-02T00:07:53.524Z,1016.64
2018-10-02T00:08:52.191Z,1016.65
2018-10-02T00:09:56.297Z,1016.68
2018-10-02T00:10:48.818Z,1016.68
2018-10-02T00:11:51.102Z,1016.68
2018-10-02T00:13:49.155Z,1016.71
2018-10-02T00:14:49.584Z,1016.70
2018-10-02T00:15:50.485Z,1016.71
2018-10-02T00:16:46.394Z,1016.76
2018-10-02T00:17:49.184Z,1016.78
2018-10-02T00:18:50.194Z,1016.75
2018-10-02T00:19:53.885Z,1016.78
2018-10-02T00:20:45.494Z,1016.79
2018-10-02T00:22:03.325Z,1016.80
2018-10-02T00:22:51.157Z,1016.79
2018-10-02T00:23:46.126Z,1016.79
2018-10-02T00:24:43.878Z,1016.81
2018-10-02T00:25:53.127Z,1016.87
2018-10-02T00:27:50.151Z,1016.87
2018-10-02T00:28:51.478Z,1016.92
2018-10-02T00:29:51.084Z,1016.87
2018-10-02T00:30:49.653Z,1016.91
2018-10-02T00:31:52.255Z,1016.92
2018-10-02T00:32:50.077Z,1016.92
2018-10-02T00:33:53.506Z,1016.96
2018-10-02T00:34:52.164Z,1016.95
2018-10-02T00:35:54.910Z,1016.98
2018-10-02T00:36:53.268Z,1017.02
2018-10-02T00:37:52.870Z,1017.05
2018-10-02T00:39:52.226Z,1017.05
2018-10-02T00:41:56.892Z,1017.10
2018-10-02T00:42:50.745Z,1017.10
2018-10-02T00:43:53.842Z,1017.11
2018-10-02T00:44:46.870Z,1017.12
2018-10-02T00:46:57.839Z,1017.11
2018-10-02T00:47:50.665Z,1017.11
2018-10-02T00:48:48.317Z,1017.15
2018-10-02T00:49:55.192Z,1017.17
2018-10-02T00:50:58.874Z,1017.16
2018-10-02T00:51:53.766Z,1017.17
2018-10-02T00:52:49.701Z,1017.19
2018-10-02T00:54:52.522Z,1017.20
2018-10-02T00:55:53.171Z,1017.23
2018-10-02T00:56:50.002Z,1017.21
2018-10-02T00:57:54.415Z,1017.19
2018-10-02T00:58:53.095Z,1017.25
2018-10-02T00:59:54.017Z,1017.24
2018-10-02T01:00:53.306Z,1017.25
2018-10-02T01:01:55.874Z,1017.29
2018-10-02T01:02:55.670Z,1017.29
2018-10-02T01:03:56.088Z,1017.30
2018-10-02T01:04:55.885Z,1017.28
2018-10-02T01:05:55.669Z,1017.30
2018-10-02T01:06:54.667Z,1017.34
2018-10-02T01:07:49.448Z,1017.33
2018-10-02T01:08:54.369Z,1017.38
2018-10-02T01:09:50.599Z,1017.36
2018-10-02T01:10:56.165Z,1017.42
2018-10-02T01:11:51.184Z,1017.37
2018-10-02T01:12:51.121Z,1017.37
2018-10-02T01:13:57.693Z,1017.35
2018-10-02T01:14:49.293Z,1017.40
2018-10-02T01:15:54.618Z,1017.41
2018-10-02T01:16:59.744Z,1017.39
2018-10-02T01:18:01.078Z,1017.38
2018-10-02T01:18:54.433Z,1017.42
2018-10-02T01:19:53.488Z,1017.42
2018-10-02T01:20:51.886Z,1017.43
2018-10-02T01:21:54.444Z,1017.43
2018-10-02T01:22:49.229Z,1017.39
2018-10-02T01:23:58.649Z,1017.40
2018-10-02T01:24:46.690Z,1017.43
2018-10-02T01:25:53.350Z,1017.45
2018-10-02T01:26:56.631Z,1017.42
2018-10-02T01:27:54.487Z,1017.42
2018-10-02T01:29:56.947Z,1017.43
2018-10-02T01:31:55.532Z,1017.47
2018-10-02T01:32:56.350Z,1017.50
2018-10-02T01:34:54.198Z,1017.52
2018-10-02T01:35:54.532Z,1017.49
2018-10-02T01:36:54.025Z,1017.50
2018-10-02T01:37:57.399Z,1017.49
2018-10-02T01:38:55.686Z,1017.52
2018-10-02T01:39:58.540Z,1017.50
2018-10-02T01:42:59.794Z,1017.52
2018-10-02T01:43:55.287Z,1017.51
2018-10-02T01:44:53.375Z,1017.57
2018-10-02T01:45:57.865Z,1017.57
2018-10-02T01:46:51.832Z,1017.58
2018-10-02T01:47:53.883Z,1017.51
2018-10-02T01:48:51.038Z,1017.50
2018-10-02T01:49:52.662Z,1017.46
2018-10-02T01:50:58.704Z,1017.43
2018-10-02T01:51:55.336Z,1017.45
2018-10-02T01:52:50.115Z,1017.48
2018-10-02T01:53:56.479Z,1017.46
2018-10-02T01:54:54.694Z,1017.48
2018-10-02T01:55:54.584Z,1017.46
2018-10-02T01:56:55.259Z,1017.46
2018-10-02T01:57:55.272Z,1017.44
2018-10-02T01:58:52.307Z,1017.46
2018-10-02T02:00:01.531Z,1017.45
2018-10-02T02:00:54.968Z,1017.44
2018-10-02T02:01:55.691Z,1017.43
2018-10-02T02:02:55.088Z,1017.45
2018-10-02T02:04:55.146Z,1017.43
2018-10-02T02:05:58.791Z,1017.44
2018-10-02T02:06:53.467Z,1017.42
2018-10-02T02:07:56.872Z,1017.46
2018-10-02T02:08:52.567Z,1017.41
2018-10-02T02:09:54.929Z,1017.43
2018-10-02T02:10:56.059Z,1017.43
2018-10-02T02:11:46.591Z,1017.46
2018-10-02T02:12:53.214Z,1017.45
2018-10-02T02:13:54.852Z,1017.44
2018-10-02T02:14:56.386Z,1017.44
2018-10-02T02:15:55.475Z,1017.42
2018-10-02T02:16:55.576Z,1017.43
2018-10-02T02:17:48.945Z,1017.42
2018-10-02T02:18:52.726Z,1017.47
2018-10-02T02:19:52.932Z,1017.45
2018-10-02T02:21:00.003Z,1017.46
2018-10-02T02:21:56.125Z,1017.47
2018-10-02T02:22:56.237Z,1017.43
2018-10-02T02:23:58.586Z,1017.46
2018-10-02T02:24:44.871Z,1017.47
2018-10-02T02:26:55.227Z,1017.45
2018-10-02T02:27:51.954Z,1017.40
2018-10-02T02:28:58.520Z,1017.45
2018-10-02T02:29:54.661Z,1017.45
2018-10-02T02:30:52.898Z,1017.44
2018-10-02T02:31:57.097Z,1017.45
2018-10-02T02:32:51.634Z,1017.45
2018-10-02T02:33:52.090Z,1017.41
2018-10-02T02:35:00.999Z,1017.40
2018-10-02T02:35:56.732Z,1017.37
2018-10-02T02:37:01.226Z,1017.40
2018-10-02T02:38:54.374Z,1017.40
2018-10-02T02:39:50.383Z,1017.41
2018-10-02T02:41:01.960Z,1017.39
2018-10-02T02:41:56.343Z,1017.41
2018-10-02T02:42:57.726Z,1017.34
2018-10-02T02:43:57.882Z,1017.35
2018-10-02T02:44:57.882Z,1017.35
2018-10-02T02:45:51.743Z,1017.34
2018-10-02T02:46:52.276Z,1017.32
2018-10-02T02:47:56.265Z,1017.32
2018-10-02T02:48:52.381Z,1017.28
2018-10-02T02:49:52.084Z,1017.29
2018-10-02T02:52:03.150Z,1017.25
2018-10-02T02:52:54.357Z,1017.23
2018-10-02T02:53:54.157Z,1017.24
2018-10-02T02:54:47.397Z,1017.26
2018-10-02T02:55:57.441Z,1017.26
2018-10-02T02:57:49.591Z,1017.21
2018-10-02T02:58:56.968Z,1017.25
2018-10-02T02:59:56.853Z,1017.23
2018-10-02T03:00:54.608Z,1017.19
2018-10-02T03:01:50.925Z,1017.28
2018-10-02T03:02:55.541Z,1017.28
2018-10-02T03:03:50.938Z,1017.24
2018-10-02T03:04:50.322Z,1017.22
2018-10-02T03:05:57.020Z,1017.22
2018-10-02T03:06:50.141Z,1017.24
2018-10-02T03:07:49.310Z,1017.21
2018-10-02T03:08:52.525Z,1017.26
2018-10-02T03:09:53.935Z,1017.29
2018-10-02T03:10:57.454Z,1017.20
2018-10-02T03:11:50.254Z,1017.19
2018-10-02T03:12:54.363Z,1017.18
2018-10-02T03:13:54.782Z,1017.12
2018-10-02T03:14:55.198Z,1017.11
2018-10-02T03:15:49.199Z,1017.12
2018-10-02T03:17:53.113Z,1017.13
2018-10-02T03:20:56.456Z,1017.13
2018-10-02T03:21:53.591Z,1017.08
2018-10-02T03:23:00.153Z,1017.11
2018-10-02T03:24:00.977Z,1017.10
2018-10-02T03:24:50.640Z,1017.08
2018-10-02T03:25:58.989Z,1017.06
2018-10-02T03:26:56.804Z,1017.12
2018-10-02T03:27:56.905Z,1017.11
2018-10-02T03:28:53.684Z,1017.11
2018-10-02T03:29:55.261Z,1017.11
2018-10-02T03:30:56.311Z,1017.11
2018-10-02T03:31:58.362Z,1017.09
2018-10-02T03:32:49.662Z,1017.05
2018-10-02T03:33:59.908Z,1017.05
2018-10-02T03:34:56.325Z,1017.05
2018-10-02T03:35:49.790Z,1017.04
2018-10-02T03:37:54.730Z,1017.03
2018-10-02T03:41:01.494Z,1017.01
2018-10-02T03:41:49.716Z,1017.03
2018-10-02T03:42:56.760Z,1017.00
2018-10-02T03:44:01.603Z,1016.98
2018-10-02T03:45:01.208Z,1016.99
2018-10-02T03:46:00.181Z,1016.97
2018-10-02T03:46:52.221Z,1016.92
2018-10-02T03:47:59.591Z,1016.98
2018-10-02T03:48:56.891Z,1016.98
2018-10-02T03:49:51.500Z,1016.95
2018-10-02T03:51:55.241Z,1016.88
2018-10-02T03:53:03.299Z,1016.88
2018-10-02T03:54:00.543Z,1016.85
2018-10-02T03:54:59.052Z,1016.84
2018-10-02T03:56:57.603Z,1016.79
2018-10-02T03:58:04.049Z,1016.77
2018-10-02T03:58:58.931Z,1016.73
2018-10-02T03:59:50.631Z,1016.76
2018-10-02T04:00:52.185Z,1016.76
2018-10-02T04:01:59.983Z,1016.75
2018-10-02T04:03:51.171Z,1016.72
2018-10-02T04:04:58.284Z,1016.71
2018-10-02T04:05:55.595Z,1016.66
2018-10-02T04:06:55.283Z,1016.68
2018-10-02T04:11:04.222Z,1016.65
2018-10-02T04:11:51.934Z,1016.64
2018-10-02T04:13:01.908Z,1016.64
2018-10-02T04:14:04.340Z,1016.65
2018-10-02T04:15:05.467Z,1016.59
2018-10-02T04:16:59.961Z,1016.52
2018-10-02T04:17:59.546Z,1016.50
2018-10-02T04:18:53.006Z,1016.49
2018-10-02T04:20:05.499Z,1016.47
2018-10-02T04:21:59.283Z,1016.43
2018-10-02T04:23:01.829Z,1016.40
2018-10-02T04:24:05.927Z,1016.37
2018-10-02T04:24:55.183Z,1016.35
2018-10-02T04:26:01.845Z,1016.33
2018-10-02T04:28:02.657Z,1016.28
2018-10-02T04:29:59.540Z,1016.26
2018-10-02T04:33:04.650Z,1016.27
2018-10-02T04:33:55.104Z,1016.26
2018-10-02T04:35:11.942Z,1016.29
2018-10-02T04:35:52.389Z,1016.25
2018-10-02T04:37:02.622Z,1016.26
2018-10-02T04:37:53.236Z,1016.19
2018-10-02T04:38:59.799Z,1016.19
2018-10-02T04:39:59.570Z,1016.20
2018-10-02T04:41:04.392Z,1016.17
2018-10-02T04:42:07.052Z,1016.21
2018-10-02T04:43:04.401Z,1016.19
2018-10-02T04:43:59.284Z,1016.12
2018-10-02T04:44:56.320Z,1016.16
2018-10-02T04:46:07.496Z,1016.12
2018-10-02T04:47:52.676Z,1016.12
2018-10-02T04:48:52.361Z,1016.10
2018-10-02T04:50:04.050Z,1016.08
2018-10-02T04:51:00.460Z,1016.03
2018-10-02T04:52:02.000Z,1016.06
2018-10-02T04:53:04.310Z,1016.04
2018-10-02T04:54:03.436Z,1016.01
2018-10-02T04:56:01.492Z,1015.98
2018-10-02T04:57:05.303Z,1016.03
2018-10-02T04:57:58.855Z,1015.99
2018-10-02T04:59:55.484Z,1015.95
2018-10-02T05:01:01.429Z,1015.94
2018-10-02T05:02:02.570Z,1016.00
2018-10-02T05:02:56.531Z,1015.87
2018-10-02T05:03:55.821Z,1015.90
2018-10-02T05:05:00.939Z,1015.89
2018-10-02T05:05:58.807Z,1015.83
2018-10-02T05:07:53.174Z,1015.80
2018-10-02T05:09:03.326Z,1015.76
2018-10-02T05:09:49.543Z,1015.73
2018-10-02T05:10:59.757Z,1015.69
2018-10-02T05:13:59.182Z,1015.61
2018-10-02T05:15:07.856Z,1015.57
2018-10-02T05:16:09.410Z,1015.59
2018-10-02T05:17:05.617Z,1015.62
2018-10-02T05:18:00.910Z,1015.61
2018-10-02T05:18:57.431Z,1015.60
2018-10-02T05:20:02.267Z,1015.60
2018-10-02T05:21:06.158Z,1015.53
2018-10-02T05:22:01.555Z,1015.56
2018-10-02T05:22:56.481Z,1015.51
2018-10-02T05:23:56.042Z,1015.48
2018-10-02T05:25:01.227Z,1015.52
2018-10-02T05:26:07.002Z,1015.48
2018-10-02T05:27:04.253Z,1015.48
2018-10-02T05:28:01.480Z,1015.46
2018-10-02T05:28:51.964Z,1015.43
2018-10-02T05:30:00.680Z,1015.44
2018-10-02T05:30:53.414Z,1015.42
2018-10-02T05:32:00.479Z,1015.37
2018-10-02T05:33:04.481Z,1015.32
2018-10-02T05:34:07.258Z,1015.28
2018-10-02T05:36:13.511Z,1015.24
2018-10-02T05:36:53.466Z,1015.33
2018-10-02T05:38:59.598Z,1015.32
2018-10-02T05:40:02.581Z,1015.27
2018-10-02T05:41:02.993Z,1015.30
2018-10-02T05:41:59.000Z,1015.29
2018-10-02T05:42:53.893Z,1015.23
2018-10-02T05:44:01.680Z,1015.23
2018-10-02T05:44:58.819Z,1015.22
2018-10-02T05:46:05.836Z,1015.16
2018-10-02T05:46:53.333Z,1015.18
2018-10-02T05:47:52.601Z,1015.17
2018-10-02T05:48:51.265Z,1015.17
2018-10-02T05:49:55.605Z,1015.13
2018-10-02T05:51:00.076Z,1015.14
2018-10-02T05:51:58.562Z,1015.15
2018-10-02T05:53:03.469Z,1015.14
2018-10-02T05:54:59.798Z,1015.12
2018-10-02T05:55:54.278Z,1015.10
2018-10-02T05:56:59.085Z,1015.08
2018-10-02T05:57:50.293Z,1015.04
2018-10-02T05:58:58.346Z,1015.04
2018-10-02T05:59:57.169Z,1015.01
2018-10-02T06:01:02.178Z,1014.98
2018-10-02T06:02:54.012Z,1014.99
2018-10-02T06:03:54.845Z,1014.98
2018-10-02T06:04:58.832Z,1014.95
2018-10-02T06:06:07.638Z,1015.01
2018-10-02T06:06:58.345Z,1014.92
2018-10-02T06:07:59.573Z,1014.92
2018-10-02T06:10:06.263Z,1014.89
2018-10-02T06:10:59.176Z,1014.83
2018-10-02T06:11:57.647Z,1014.80
2018-10-02T06:13:02.475Z,1014.79
2018-10-02T06:14:01.412Z,1014.76
2018-10-02T06:15:06.681Z,1014.72
2018-10-02T06:16:04.111Z,1014.68
2018-10-02T06:16:55.016Z,1014.69
2018-10-02T06:18:03.405Z,1014.64
2018-10-02T06:20:04.849Z,1014.67
2018-10-02T06:21:01.349Z,1014.63
2018-10-02T06:22:03.941Z,1014.62
2018-10-02T06:23:00.353Z,1014.63
2018-10-02T06:23:58.426Z,1014.67
2018-10-02T06:24:51.883Z,1014.63
2018-10-02T06:26:01.726Z,1014.61
2018-10-02T06:27:01.727Z,1014.57
2018-10-02T06:28:04.927Z,1014.62
2018-10-02T06:29:06.845Z,1014.61
2018-10-02T06:30:00.208Z,1014.55
2018-10-02T06:30:59.485Z,1014.55
2018-10-02T06:32:02.045Z,1014.51
2018-10-02T06:33:03.710Z,1014.49
2018-10-02T06:34:07.600Z,1014.48
2018-10-02T06:35:06.362Z,1014.49
2018-10-02T06:36:10.371Z,1014.45
2018-10-02T06:36:57.286Z,1014.42
2018-10-02T06:38:03.665Z,1014.43
2018-10-02T06:39:01.622Z,1014.43
2018-10-02T06:40:03.743Z,1014.45
2018-10-02T06:43:03.761Z,1014.40
2018-10-02T06:44:06.121Z,1014.35
2018-10-02T06:45:03.213Z,1014.33
2018-10-02T06:45:57.926Z,1014.29
2018-10-02T06:47:03.885Z,1014.32
2018-10-02T06:49:08.081Z,1014.27
2018-10-02T06:49:55.190Z,1014.25
2018-10-02T06:51:12.944Z,1014.24
2018-10-02T06:52:06.840Z,1014.25
2018-10-02T06:53:06.573Z,1014.25
2018-10-02T06:53:59.972Z,1014.20
2018-10-02T06:55:01.775Z,1014.20
2018-10-02T06:57:03.437Z,1014.19
2018-10-02T06:58:07.524Z,1014.16
2018-10-02T06:59:05.374Z,1014.17
2018-10-02T07:00:05.386Z,1014.13
2018-10-02T07:01:08.763Z,1014.13
2018-10-02T07:02:00.390Z,1014.15
2018-10-02T07:03:03.723Z,1014.11
2018-10-02T07:04:02.959Z,1014.08
2018-10-02T07:07:09.658Z,1014.05
2018-10-02T07:08:08.214Z,1014.01
2018-10-02T07:09:12.203Z,1014.01
2018-10-02T07:09:54.689Z,1014.02
2018-10-02T07:12:59.425Z,1013.89
2018-10-02T07:13:58.384Z,1013.92
2018-10-02T07:15:03.962Z,1013.87
2018-10-02T07:16:15.619Z,1013.92
2018-10-02T07:17:08.892Z,1013.87
2018-10-02T07:17:58.889Z,1013.89
2018-10-02T07:19:03.132Z,1013.85
2018-10-02T07:20:13.184Z,1013.86
2018-10-02T07:21:09.679Z,1013.85
2018-10-02T07:22:12.277Z,1013.76
2018-10-02T07:23:06.742Z,1013.77
2018-10-02T07:24:07.469Z,1013.78
2018-10-02T07:25:04.093Z,1013.73
2018-10-02T07:26:03.005Z,1013.74
2018-10-02T07:27:05.723Z,1013.76
2018-10-02T07:30:00.342Z,1013.68
2018-10-02T07:32:06.073Z,1013.64
2018-10-02T07:35:05.378Z,1013.59
2018-10-02T07:36:01.907Z,1013.58
2018-10-02T07:37:02.462Z,1013.59
2018-10-02T07:38:02.838Z,1013.57
2018-10-02T07:39:01.171Z,1013.57
2018-10-02T07:40:10.025Z,1013.56
2018-10-02T07:41:11.572Z,1013.57
2018-10-02T07:42:09.258Z,1013.54
2018-10-02T07:43:05.221Z,1013.55
2018-10-02T07:44:06.916Z,1013.51
2018-10-02T07:45:07.949Z,1013.46
2018-10-02T07:46:06.898Z,1013.46
2018-10-02T07:47:04.904Z,1013.48
2018-10-02T07:48:06.485Z,1013.47
2018-10-02T07:49:06.900Z,1013.46
2018-10-02T07:51:13.457Z,1013.44
2018-10-02T07:52:07.408Z,1013.42
2018-10-02T07:54:03.475Z,1013.40
2018-10-02T07:55:08.988Z,1013.41
2018-10-02T07:56:10.618Z,1013.39
2018-10-02T07:57:06.676Z,1013.34
2018-10-02T07:58:02.242Z,1013.38
2018-10-02T07:59:13.504Z,1013.38
2018-10-02T08:00:01.442Z,1013.38
2018-10-02T08:01:11.683Z,1013.39
2018-10-02T08:02:15.578Z,1013.37
2018-10-02T08:03:58.584Z,1013.34
2018-10-02T08:04:59.752Z,1013.35
2018-10-02T08:06:10.300Z,1013.33
2018-10-02T08:07:11.510Z,1013.31
2018-10-02T08:08:13.156Z,1013.31
2018-10-02T08:09:05.221Z,1013.35
2018-10-02T08:09:56.782Z,1013.32
2018-10-02T08:11:07.218Z,1013.33
2018-10-02T08:12:09.510Z,1013.35
2018-10-02T08:13:03.654Z,1013.34
2018-10-02T08:14:07.445Z,1013.34
2018-10-02T08:15:04.873Z,1013.36
2018-10-02T08:16:08.897Z,1013.39
2018-10-02T08:17:09.105Z,1013.67
2018-10-02T08:18:15.047Z,1013.69
2018-10-02T08:18:57.650Z,1013.70
2018-10-02T08:19:56.806Z,1013.77
2018-10-02T08:21:05.965Z,1013.64
2018-10-02T08:23:11.397Z,1013.55
2018-10-02T08:25:08.134Z,1013.71
2018-10-02T08:27:04.947Z,1013.46
2018-10-02T08:29:15.492Z,1013.39
2018-10-02T08:30:06.966Z,1013.33
2018-10-02T08:31:10.225Z,1013.33
2018-10-02T08:33:11.526Z,1013.36
2018-10-02T08:34:15.757Z,1013.32
2018-10-02T08:35:06.259Z,1013.29
2018-10-02T08:36:20.365Z,1013.30
2018-10-02T08:37:12.799Z,1013.32
2018-10-02T08:38:14.938Z,1013.32
2018-10-02T08:39:13.334Z,1013.42
2018-10-02T08:40:15.945Z,1013.56
2018-10-02T08:41:21.930Z,1013.65
2018-10-02T08:42:19.939Z,1013.64
2018-10-02T08:44:15.408Z,1013.66
2018-10-02T08:45:05.246Z,1013.67
2018-10-02T08:46:18.585Z,1013.60
2018-10-02T08:47:18.950Z,1013.47
2018-10-02T08:48:20.563Z,1013.43
2018-10-02T08:49:13.952Z,1013.39
2018-10-02T08:50:06.217Z,1013.38
2018-10-02T08:51:12.450Z,1013.37
2018-10-02T08:52:06.181Z,1013.35
2018-10-02T08:53:03.077Z,1013.33
2018-10-02T08:54:30.001Z,1013.33
2018-10-02T08:55:27.753Z,1013.40
2018-10-02T08:56:10.449Z,1013.32
2018-10-02T08:57:21.027Z,1013.31
2018-10-02T08:58:17.950Z,1013.31
2018-10-02T08:59:07.915Z,1013.29
2018-10-02T09:00:10.270Z,1013.27
2018-10-02T09:02:11.121Z,1013.22
2018-10-02T09:03:13.311Z,1013.24
2018-10-02T09:05:10.607Z,1013.25
2018-10-02T09:06:29.002Z,1013.27
2018-10-02T09:07:21.885Z,1013.24
2018-10-02T09:08:09.801Z,1013.21
2018-10-02T09:09:22.607Z,1013.21
2018-10-02T09:10:05.307Z,1013.20
2018-10-02T09:11:14.959Z,1013.18
2018-10-02T09:12:16.071Z,1013.19
2018-10-02T09:13:00.011Z,1013.20
2018-10-02T09:14:11.065Z,1013.21
2018-10-02T09:15:12.104Z,1013.23
2018-10-02T09:17:01.564Z,1013.20
2018-10-02T09:18:15.471Z,1013.21
2018-10-02T09:19:15.085Z,1013.20
2018-10-02T09:20:18.063Z,1013.20
2018-10-02T09:21:11.637Z,1013.23
2018-10-02T09:22:17.556Z,1013.20
2018-10-02T09:23:06.973Z,1013.20
2018-10-02T09:24:01.719Z,1013.22
2018-10-02T09:25:11.762Z,1013.17
2018-10-02T09:26:59.372Z,1013.21
2018-10-02T09:28:08.960Z,1013.19
2018-10-02T09:29:19.136Z,1013.24
2018-10-02T09:30:20.120Z,1013.20
2018-10-02T09:31:12.982Z,1013.19
2018-10-02T09:33:05.864Z,1013.19
2018-10-02T09:34:15.385Z,1013.18
2018-10-02T09:35:06.776Z,1013.19
2018-10-02T09:36:13.244Z,1013.21
2018-10-02T09:38:12.020Z,1013.19
2018-10-02T09:38:59.951Z,1013.16
2018-10-02T09:40:06.022Z,1013.15
2018-10-02T09:41:10.194Z,1013.19
2018-10-02T09:42:04.484Z,1013.20
2018-10-02T09:43:14.411Z,1013.19
2018-10-02T09:44:12.465Z,1013.16
2018-10-02T09:45:11.140Z,1013.24
2018-10-02T09:46:15.455Z,1013.27
2018-10-02T09:47:16.894Z,1013.25
2018-10-02T09:48:04.990Z,1013.28
2018-10-02T09:49:07.687Z,1013.25
2018-10-02T09:50:04.000Z,1013.28
2018-10-02T09:51:16.293Z,1013.26
2018-10-02T09:52:20.301Z,1013.24
2018-10-02T09:54:07.097Z,1013.21
2018-10-02T09:55:11.985Z,1013.22
2018-10-02T09:56:17.860Z,1013.22
2018-10-02T09:57:07.988Z,1013.24
2018-10-02T09:58:11.311Z,1013.22
2018-10-02T09:59:01.599Z,1013.19
2018-10-02T10:00:05.713Z,1013.22
2018-10-02T10:02:14.316Z,1013.21
2018-10-02T10:04:07.207Z,1013.21
2018-10-02T10:05:11.663Z,1013.20
2018-10-02T10:06:14.741Z,1013.22
2018-10-02T10:07:04.718Z,1013.23
2018-10-02T10:08:00.313Z,1013.21
2018-10-02T10:09:03.006Z,1013.18
2018-10-02T10:10:13.438Z,1013.19
2018-10-02T10:11:11.500Z,1013.19
2018-10-02T10:12:06.727Z,1013.18
2018-10-02T10:13:02.698Z,1013.17
2018-10-02T10:14:10.800Z,1013.19
2018-10-02T10:15:07.044Z,1013.20
2018-10-02T10:16:19.101Z,1013.18
2018-10-02T10:17:12.433Z,1013.17
2018-10-02T10:18:06.100Z,1013.21
2018-10-02T10:19:11.136Z,1013.21
2018-10-02T10:21:11.500Z,1013.26
2018-10-02T10:23:15.007Z,1013.25
2018-10-02T10:25:13.933Z,1013.27
2018-10-02T10:26:12.597Z,1013.23
2018-10-02T10:27:12.710Z,1013.29
2018-10-02T10:28:05.256Z,1013.24
2018-10-02T10:30:00.980Z,1013.28
2018-10-02T10:32:13.373Z,1013.32
2018-10-02T10:33:10.705Z,1013.33
2018-10-02T10:34:14.285Z,1013.30
2018-10-02T10:35:13.070Z,1013.30
2018-10-02T10:36:12.254Z,1013.30
2018-10-02T10:37:10.831Z,1013.31
2018-10-02T10:38:01.817Z,1013.29
2018-10-02T10:40:04.080Z,1013.31
2018-10-02T10:41:12.084Z,1013.32
2018-10-02T10:42:02.449Z,1013.34
2018-10-02T10:43:14.337Z,1013.36
2018-10-02T10:44:16.399Z,1013.34
2018-10-02T10:45:12.104Z,1013.33
2018-10-02T10:46:14.979Z,1013.29
2018-10-02T10:47:08.825Z,1013.34
2018-10-02T10:48:12.010Z,1013.34
2018-10-02T10:49:07.418Z,1013.35
2018-10-02T10:50:05.072Z,1013.34
2018-10-02T10:51:02.601Z,1013.36
2018-10-02T10:52:11.127Z,1013.37
2018-10-02T10:53:14.599Z,1013.36
2018-10-02T10:54:08.256Z,1013.37
2018-10-02T10:55:10.009Z,1013.35
2018-10-02T10:57:09.707Z,1013.39
2018-10-02T10:58:08.903Z,1013.39
2018-10-02T10:59:10.035Z,1013.38
2018-10-02T11:00:09.827Z,1013.42
2018-10-02T11:01:09.428Z,1013.40
2018-10-02T11:02:04.007Z,1013.42
2018-10-02T11:03:11.579Z,1013.42
2018-10-02T11:04:11.994Z,1013.43
2018-10-02T11:05:13.755Z,1013.42
2018-10-02T11:06:02.535Z,1013.43
2018-10-02T11:08:04.034Z,1013.39
2018-10-02T11:09:12.666Z,1013.39
2018-10-02T11:10:07.734Z,1013.40
2018-10-02T11:11:07.042Z,1013.43
2018-10-02T11:12:08.083Z,1013.41
2018-10-02T11:13:14.823Z,1013.43
2018-10-02T11:14:14.621Z,1013.44
2018-10-02T11:15:07.696Z,1013.47
2018-10-02T11:18:14.436Z,1013.52
2018-10-02T11:19:10.543Z,1013.53
2018-10-02T11:21:05.035Z,1013.58
2018-10-02T11:22:08.773Z,1013.57
2018-10-02T11:23:14.543Z,1013.60
2018-10-02T11:24:08.282Z,1013.61
2018-10-02T11:25:13.801Z,1013.63
2018-10-02T11:26:16.136Z,1013.62
2018-10-02T11:27:15.048Z,1013.63
2018-10-02T11:28:10.407Z,1013.63
2018-10-02T11:29:08.046Z,1013.63
2018-10-02T11:30:13.592Z,1013.62
2018-10-02T11:31:10.003Z,1013.64
2018-10-02T11:32:08.543Z,1013.67
2018-10-02T11:33:05.304Z,1013.68
2018-10-02T11:34:06.238Z,1013.73
2018-10-02T11:36:10.041Z,1013.74
2018-10-02T11:37:12.760Z,1013.76
2018-10-02T11:38:15.369Z,1013.78
2018-10-02T11:39:02.064Z,1013.81
2018-10-02T11:40:18.153Z,1013.80
2018-10-02T11:41:10.049Z,1013.82
2018-10-02T11:42:09.987Z,1013.80
2018-10-02T11:44:09.456Z,1013.83
2018-10-02T11:45:10.196Z,1013.81
2018-10-02T11:47:10.295Z,1013.87
2018-10-02T11:48:06.659Z,1013.91
2018-10-02T11:49:09.589Z,1013.93
2018-10-02T11:50:07.986Z,1013.91
2018-10-02T11:51:13.018Z,1013.96
2018-10-02T11:54:07.991Z,1013.97
2018-10-02T11:56:13.630Z,1013.99
2018-10-02T11:57:17.315Z,1014.02
2018-10-02T11:58:10.058Z,1014.02
2018-10-02T11:59:15.701Z,1014.03
2018-10-02T12:00:11.297Z,1014.01
2018-10-02T12:01:15.500Z,1014.05
2018-10-02T12:02:09.173Z,1014.04
2018-10-02T12:03:18.351Z,1014.06
2018-10-02T12:04:08.759Z,1014.09
2018-10-02T12:05:13.569Z,1014.08
2018-10-02T12:06:15.012Z,1014.07
2018-10-02T12:09:14.254Z,1014.10
2018-10-02T12:10:20.078Z,1014.11
2018-10-02T12:13:11.381Z,1014.16
2018-10-02T12:14:09.919Z,1014.15
2018-10-02T12:15:21.485Z,1014.16
2018-10-02T12:16:10.153Z,1014.19
2018-10-02T12:17:11.346Z,1014.21
2018-10-02T12:18:06.075Z,1014.18
2018-10-02T12:19:11.203Z,1014.17
2018-10-02T12:21:07.224Z,1014.21
2018-10-02T12:22:11.525Z,1014.21
2018-10-02T12:23:16.853Z,1014.22
2018-10-02T12:24:15.700Z,1014.22
2018-10-02T12:25:12.053Z,1014.20
2018-10-02T12:26:08.073Z,1014.21
2018-10-02T12:27:12.237Z,1014.21
2018-10-02T12:28:08.077Z,1014.25
2018-10-02T12:29:13.714Z,1014.27
2018-10-02T12:30:07.760Z,1014.25
2018-10-02T12:31:05.994Z,1014.27
2018-10-02T12:32:12.785Z,1014.27
2018-10-02T12:33:12.405Z,1014.26
2018-10-02T12:34:17.389Z,1014.26
2018-10-02T12:35:12.574Z,1014.27
2018-10-02T12:36:09.153Z,1014.28
2018-10-02T12:37:13.141Z,1014.34
2018-10-02T12:38:16.836Z,1014.34
2018-10-02T12:39:16.181Z,1014.36
2018-10-02T12:40:05.435Z,1014.42
2018-10-02T12:41:11.083Z,1014.47
2018-10-02T12:42:10.818Z,1014.43
2018-10-02T12:43:16.156Z,1014.52
2018-10-02T12:44:18.205Z,1014.52
2018-10-02T12:45:10.025Z,1014.53
2018-10-02T12:46:10.903Z,1014.59
2018-10-02T12:47:14.118Z,1014.59
2018-10-02T12:48:13.214Z,1014.64
2018-10-02T12:49:06.094Z,1014.64
2018-10-02T12:50:12.706Z,1014.68
2018-10-02T12:51:11.375Z,1014.71
2018-10-02T12:52:10.940Z,1014.67
2018-10-02T12:53:09.655Z,1014.73
2018-10-02T12:54:10.177Z,1014.73
2018-10-02T12:55:15.402Z,1014.78
2018-10-02T12:56:27.178Z,1014.74
2018-10-02T12:57:09.566Z,1014.82
2018-10-02T12:58:03.752Z,1014.80
2018-10-02T12:59:10.967Z,1014.85
2018-10-02T13:00:15.322Z,1014.85
2018-10-02T13:01:11.752Z,1014.86
2018-10-02T13:02:14.715Z,1014.88
2018-10-02T13:03:08.078Z,1014.89
2018-10-02T13:03:59.784Z,1014.93
2018-10-02T13:05:11.767Z,1014.94
2018-10-02T13:06:11.466Z,1014.98
2018-10-02T13:07:05.273Z,1014.98
2018-10-02T13:08:03.286Z,1014.96
2018-10-02T13:09:10.495Z,1015.04
2018-10-02T13:10:13.760Z,1015.04
2018-10-02T13:11:15.176Z,1015.04
2018-10-02T13:12:05.279Z,1015.06
2018-10-02T13:14:13.234Z,1015.10
2018-10-02T13:15:12.111Z,1015.10
2018-10-02T13:17:09.602Z,1015.16
2018-10-02T13:18:13.986Z,1015.16
2018-10-02T13:19:12.674Z,1015.21
2018-10-02T13:21:09.400Z,1015.26
2018-10-02T13:22:12.812Z,1015.30
2018-10-02T13:23:03.584Z,1015.28
2018-10-02T13:24:07.173Z,1015.33
2018-10-02T13:25:07.609Z,1015.33
2018-10-02T13:26:12.714Z,1015.37
2018-10-02T13:29:13.542Z,1015.45
2018-10-02T13:30:09.870Z,1015.48
2018-10-02T13:31:11.822Z,1015.49
2018-10-02T13:32:11.017Z,1015.51
2018-10-02T13:34:08.027Z,1015.55
2018-10-02T13:35:08.594Z,1015.53
2018-10-02T13:36:14.908Z,1015.57
2018-10-02T13:37:16.622Z,1015.60
2018-10-02T13:38:13.158Z,1015.60
2018-10-02T13:39:12.064Z,1015.61
2018-10-02T13:40:12.006Z,1015.61
2018-10-02T13:41:16.118Z,1015.65
2018-10-02T13:42:13.720Z,1015.67
2018-10-02T13:43:03.616Z,1015.70
2018-10-02T13:44:13.635Z,1015.70
2018-10-02T13:46:17.231Z,1015.70
2018-10-02T13:48:12.681Z,1015.67
2018-10-02T13:49:18.123Z,1015.72
2018-10-02T13:50:13.900Z,1015.72
2018-10-02T13:54:15.664Z,1015.81
2018-10-02T13:55:22.503Z,1015.81
2018-10-02T13:56:11.120Z,1015.81
2018-10-02T13:57:16.109Z,1015.80
2018-10-02T13:58:03.775Z,1015.81
2018-10-02T13:59:18.636Z,1015.85